Time;durP1;ratioP1;P1;durP2;ratioP2;P2;SDS_P1;SDS_P2;PMS_P1;PMS_P2;Temp;Humidity;BMP_temperature;BMP_pressure;BME280_temperature;BME280_humidity;BME280_pressure;Samples;Min_cycle;Max_cycle;Signal;HPM_P1;HPM_P2
2023/02/07 00:11:36;;;;;;;70.20;33.55;;;;;;;-6.87;70.54;102727.84;30744273;28;96902;-74
2023/02/07 00:26:36;;;;;;;55.58;27.60;;;;;;;-6.99;71.18;102745.94;30742520;28;97487;-77
2023/02/07 00:41:37;;;;;;;55.17;26.23;;;;;;;-7.14;71.02;102757.97;30743304;28;96792;-74
2023/02/07 00:56:38;;;;;;;46.27;24.53;;;;;;;-7.20;71.19;102732.06;30739890;28;97253;-68
2023/02/07 01:11:38;;;;;;;58.07;28.37;;;;;;;-7.20;72.11;102688.03;30738226;28;97231;-71
2023/02/07 01:26:39;;;;;;;61.28;32.75;;;;;;;-7.24;72.06;102668.16;30849734;28;98127;-74
2023/02/07 01:41:39;;;;;;;54.10;30.77;;;;;;;-7.21;72.88;102656.94;30856563;28;97383;-68
2023/02/07 01:56:44;;;;;;;51.80;30.07;;;;;;;-7.46;73.09;102654.25;30797936;28;97404;-75
2023/02/07 02:12:07;;;;;;;41.63;26.63;;;;;;;-7.64;72.75;102657.59;30732386;28;97368;-74
2023/02/07 02:27:50;;;;;;;46.13;25.13;;;;;;;-7.69;73.56;102680.03;30733398;28;97202;-76
2023/02/07 02:43:03;;;;;;;47.30;27.20;;;;;;;-7.62;73.74;102663.69;30730530;28;96642;-81
2023/02/07 02:58:23;;;;;;;58.47;32.33;;;;;;;-7.60;74.10;102651.59;30729902;28;96732;-71
2023/02/07 03:13:44;;;;;;;54.47;33.40;;;;;;;-7.78;74.03;102667.91;30742980;28;96773;-68
2023/02/07 03:28:46;;;;;;;58.67;30.77;;;;;;;-7.97;74.10;102664.34;30755242;28;97094;-67
2023/02/07 03:43:48;;;;;;;56.57;28.50;;;;;;;-8.03;74.02;102691.03;30753372;28;97008;-76
2023/02/07 03:58:48;;;;;;;46.97;29.17;;;;;;;-7.94;74.78;102686.78;30744122;28;97168;-76
2023/02/07 04:13:49;;;;;;;57.73;28.30;;;;;;;-8.07;75.33;102688.44;30742169;28;96862;-76
2023/02/07 04:28:49;;;;;;;61.67;32.53;;;;;;;-8.11;75.37;102689.25;30747626;28;97421;-69
2023/02/07 04:43:50;;;;;;;52.03;29.17;;;;;;;-8.18;75.63;102694.38;30851274;28;97385;-72
2023/02/07 04:58:50;;;;;;;46.20;26.93;;;;;;;-8.22;75.47;102692.63;30858086;28;96731;-73
2023/02/07 05:13:50;;;;;;;54.57;30.90;;;;;;;-8.24;75.56;102691.75;30828453;28;96930;-72
2023/02/07 05:28:51;;;;;;;42.13;27.70;;;;;;;-8.20;75.20;102678.00;30732349;28;96953;-72
2023/02/07 05:43:51;;;;;;;45.20;28.70;;;;;;;-8.29;76.10;102693.44;30848894;28;96663;-71
2023/02/07 05:58:52;;;;;;;62.63;28.93;;;;;;;-8.34;76.33;102684.78;30852433;28;97646;-71
2023/02/07 06:13:52;;;;;;;49.70;25.98;;;;;;;-8.27;75.91;102703.78;30852861;28;96769;-71
2023/02/07 06:28:53;;;;;;;59.07;30.60;;;;;;;-8.07;75.66;102706.53;30849153;28;98493;-71
2023/02/07 06:43:53;;;;;;;60.73;29.57;;;;;;;-7.73;76.12;102728.31;30857105;28;97253;-70
2023/02/07 06:58:54;;;;;;;59.17;30.00;;;;;;;-7.25;76.07;102728.56;30868963;28;97466;-70
2023/02/07 07:13:54;;;;;;;55.13;30.07;;;;;;;-6.46;76.56;102734.84;30866310;28;99409;-70
2023/02/07 07:28:57;;;;;;;80.32;35.58;;;;;;;-5.49;76.52;102743.41;30867472;28;97365;-70
2023/02/07 07:43:57;;;;;;;76.05;35.40;;;;;;;-4.09;76.80;102760.88;30865187;28;97250;-71
2023/02/07 07:58:59;;;;;;;75.63;36.67;;;;;;;-2.42;75.08;102758.94;30861191;28;98581;-71
2023/02/07 08:13:59;;;;;;;83.90;40.35;;;;;;;-1.00;74.01;102752.91;30862156;28;97917;-73
2023/02/07 08:29:00;;;;;;;87.88;41.13;;;;;;;1.22;72.02;102738.50;30859091;28;96704;-70
2023/02/07 08:44:00;;;;;;;84.72;41.85;;;;;;;2.39;68.91;102712.75;30858393;28;96628;-70
2023/02/07 08:59:00;;;;;;;84.00;42.25;;;;;;;11.93;62.36;102704.88;30855569;28;96535;-71
2023/02/07 09:14:01;;;;;;;37.05;20.83;;;;;;;18.17;45.05;102716.38;30857775;28;97196;-72
2023/02/07 09:29:02;;;;;;;58.00;34.72;;;;;;;22.42;35.57;102722.16;30855441;28;97208;-74
2023/02/07 09:44:16;;;;;;;50.88;31.35;;;;;;;23.87;27.60;102714.09;30855441;28;96789;-74
2023/02/07 09:59:36;;;;;;;31.17;20.37;;;;;;;26.46;20.93;102709.47;30853847;28;97398;-73
2023/02/07 10:14:55;;;;;;;26.53;16.50;;;;;;;27.76;17.33;102701.09;30850202;28;97950;-72
2023/02/07 10:30:15;;;;;;;25.60;14.80;;;;;;;23.90;18.31;102708.28;30850650;28;97682;-73
2023/02/07 10:45:16;;;;;;;20.70;13.47;;;;;;;26.87;16.49;102692.91;30850988;28;96713;-74
2023/02/07 11:00:27;;;;;;;;;;;;;;;29.89;13.48;102702.03;30847977;28;98077;-73
2023/02/07 11:15:35;;;;;;;25.30;15.00;;;;;;;31.01;12.74;102697.16;30845100;28;97165;-75
2023/02/07 11:30:36;;;;;;;26.23;13.50;;;;;;;19.61;19.02;102695.75;30853531;28;97986;-72
2023/02/07 11:45:41;;;;;;;18.47;12.10;;;;;;;14.42;22.77;102679.28;30864252;28;97207;-71
2023/02/07 12:00:41;;;;;;;18.67;11.00;;;;;;;10.28;26.95;102664.41;30862469;28;98271;-69
2023/02/07 12:16:12;;;;;;;18.90;10.20;;;;;;;7.59;30.76;102647.84;30863038;28;96669;-70
2023/02/07 12:31:21;;;;;;;23.73;11.50;;;;;;;5.94;33.59;102641.03;30860974;28;97174;-71
2023/02/07 12:47:13;;;;;;;18.10;10.23;;;;;;;4.91;35.81;102644.34;30849839;28;97310;-69
2023/02/07 13:02:22;;;;;;;20.98;11.85;;;;;;;4.12;37.18;102625.97;30889846;28;96952;-71
2023/02/07 13:17:22;;;;;;;21.20;11.75;;;;;;;3.43;39.31;102613.97;30849837;28;97109;-71
2023/02/07 13:32:25;;;;;;;21.10;9.95;;;;;;;2.87;40.61;102605.69;30854410;28;96965;-70
2023/02/07 13:47:32;;;;;;;25.92;12.10;;;;;;;2.49;41.43;102608.03;30852839;28;96777;-70
2023/02/07 14:02:43;;;;;;;26.08;11.45;;;;;;;2.05;43.02;102587.75;30852470;28;96709;-70
2023/02/07 14:17:44;;;;;;;30.98;12.15;;;;;;;1.85;43.47;102604.22;30848522;28;97454;-71
2023/02/07 14:33:36;;;;;;;21.50;11.43;;;;;;;1.47;44.79;102604.63;30850453;28;97258;-71
2023/02/07 14:48:51;;;;;;;24.50;10.73;;;;;;;1.22;45.41;102607.22;30890792;28;97280;-72
2023/02/07 15:04:03;;;;;;;22.23;12.10;;;;;;;0.97;46.26;102618.50;30856861;28;96823;-70
2023/02/07 15:19:17;;;;;;;20.20;10.45;;;;;;;0.62;47.02;102628.31;30868330;28;96971;-70
2023/02/07 15:34:22;;;;;;;20.83;11.23;;;;;;;0.28;48.10;102638.91;30866494;28;96670;-72
2023/02/07 15:49:32;;;;;;;;;;;;;;;0.09;48.84;102649.91;30857401;28;97078;-70
2023/02/07 16:04:33;;;;;;;22.15;11.27;;;;;;;-0.10;49.32;102646.91;30855922;28;96729;-71
2023/02/07 16:19:33;;;;;;;17.50;10.73;;;;;;;-0.17;49.91;102653.22;30851680;28;97454;-72
2023/02/07 16:34:34;;;;;;;27.60;12.23;;;;;;;-0.14;50.26;102684.56;30851765;28;97375;-72
2023/02/07 16:49:36;;;;;;;19.65;11.35;;;;;;;-0.31;51.07;102664.06;30850041;28;97463;-73
2023/02/07 17:04:37;;;;;;;21.77;11.25;;;;;;;-0.44;51.54;102676.59;30861053;28;97879;-73
2023/02/07 17:19:38;;;;;;;17.33;10.63;;;;;;;-0.51;52.18;102690.75;30843387;28;96737;-72
2023/02/07 17:34:39;;;;;;;28.13;13.20;;;;;;;-0.50;52.60;102705.56;30835930;28;97495;-80
2023/02/07 17:49:39;;;;;;;25.08;11.43;;;;;;;-0.50;52.80;102713.41;30726496;28;97343;-75
2023/02/07 18:04:40;;;;;;;27.98;12.68;;;;;;;-0.57;53.26;102728.41;30790262;28;96996;-74
2023/02/07 18:19:40;;;;;;;24.92;11.32;;;;;;;-0.64;53.61;102732.06;30762649;28;97265;-71
2023/02/07 18:34:44;;;;;;;25.95;11.98;;;;;;;-0.62;53.90;102740.75;30826192;28;96867;-77
2023/02/07 18:49:46;;;;;;;23.92;12.30;;;;;;;-0.75;54.07;102753.25;30799292;28;97163;-72
2023/02/07 19:04:47;;;;;;;23.48;10.98;;;;;;;-0.76;54.22;102759.38;30791088;28;96757;-74
2023/02/07 19:19:47;;;;;;;22.48;11.15;;;;;;;-0.84;54.50;102760.44;30826904;28;97085;-66
2023/02/07 19:34:47;;;;;;;23.02;12.38;;;;;;;-0.84;54.65;102756.06;30782470;28;96773;-66
2023/02/07 19:49:50;;;;;;;25.10;13.07;;;;;;;-0.92;54.89;102750.13;30795893;28;97042;-66
2023/02/07 20:04:54;;;;;;;22.30;10.98;;;;;;;-0.94;54.78;102754.56;30862817;28;97493;-67
2023/02/07 20:19:54;;;;;;;26.55;11.25;;;;;;;-1.03;55.61;102759.06;30833382;28;97597;-71
2023/02/07 20:34:55;;;;;;;20.33;9.43;;;;;;;-0.92;55.09;102765.84;30752229;28;96749;-66
2023/02/07 20:49:56;;;;;;;22.00;10.32;;;;;;;-1.00;55.47;102770.38;30804717;28;96658;-66
2023/02/07 21:04:58;;;;;;;15.40;8.88;;;;;;;-1.25;55.26;102776.94;30858949;28;97682;-64
2023/02/07 21:19:58;;;;;;;15.10;9.10;;;;;;;-1.33;55.72;102783.22;30856083;28;96722;-70
2023/02/07 21:34:58;;;;;;;21.52;10.73;;;;;;;-1.23;55.46;102785.66;30769505;28;97302;-66
2023/02/07 21:49:59;;;;;;;21.92;11.00;;;;;;;-1.18;56.24;102788.16;30730588;28;97839;-70
2023/02/07 22:04:59;;;;;;;21.35;10.25;;;;;;;-1.19;56.58;102796.88;30840642;28;97843;-64
2023/02/07 22:19:59;;;;;;;12.43;7.63;;;;;;;-1.26;56.32;102795.28;30853290;28;96728;-67
2023/02/07 22:35:00;;;;;;;15.38;8.98;;;;;;;-1.41;57.05;102801.66;30851851;28;96702;-66
2023/02/07 22:50:00;;;;;;;14.00;8.38;;;;;;;-1.51;57.11;102806.22;30852192;28;96819;-65
2023/02/07 23:05:01;;;;;;;11.85;7.05;;;;;;;-1.59;57.10;102823.78;30851149;28;96692;-70
2023/02/07 23:20:03;;;;;;;12.63;6.85;;;;;;;-1.61;58.04;102825.59;30850025;28;96682;-67
2023/02/07 23:35:04;;;;;;;13.30;6.93;;;;;;;-1.74;58.42;102830.97;30868809;28;96965;-68
2023/02/07 23:50:05;;;;;;;10.18;7.13;;;;;;;-1.85;58.23;102837.28;30868084;28;96939;-68
